createdAt,value
2022-11-29T07:45:09.041Z,8.30
2022-11-29T07:47:37.302Z,8.50
2022-11-29T07:50:05.408Z,8.45
2022-11-29T07:52:32.953Z,9.88
2022-11-29T07:55:01.549Z,9.30
2022-11-29T07:57:29.263Z,9.35
2022-11-29T07:59:56.947Z,7.97
2022-11-29T08:02:28.980Z,9.00
2022-11-29T08:04:56.950Z,8.98
2022-11-29T08:07:24.733Z,9.20
2022-11-29T08:09:52.761Z,9.50
2022-11-29T08:12:20.416Z,8.68
2022-11-29T08:14:48.252Z,9.77
2022-11-29T08:17:16.416Z,8.38
2022-11-29T08:19:44.389Z,8.80
2022-11-29T08:22:12.754Z,9.68
2022-11-29T08:24:40.785Z,9.77
2022-11-29T08:27:08.456Z,10.18
2022-11-29T08:29:36.141Z,8.98
2022-11-29T08:32:04.118Z,10.57
2022-11-29T08:34:32.049Z,10.68
2022-11-29T08:36:59.955Z,9.80
2022-11-29T08:39:27.973Z,10.57
2022-11-29T08:41:55.828Z,9.15
2022-11-29T08:44:23.970Z,11.13
2022-11-29T08:47:10.118Z,10.68
2022-11-29T08:49:58.349Z,12.02
2022-11-29T08:52:44.662Z,12.05
2022-11-29T08:55:12.643Z,10.77
2022-11-29T08:57:41.224Z,14.60
2022-11-29T09:00:10.660Z,11.35
2022-11-29T09:02:38.665Z,11.48
2022-11-29T09:05:06.781Z,11.60
2022-11-29T09:07:34.478Z,10.73
2022-11-29T09:10:05.540Z,10.40
2022-11-29T09:12:33.788Z,12.65
2022-11-29T09:15:01.638Z,12.05
2022-11-29T09:17:29.602Z,11.88
2022-11-29T09:19:57.291Z,11.93
2022-11-29T09:22:24.974Z,11.18
2022-11-29T09:24:52.572Z,11.10
2022-11-29T09:27:20.257Z,10.60
2022-11-29T09:29:48.337Z,10.38
2022-11-29T09:32:16.106Z,9.60
2022-11-29T09:34:43.968Z,8.73
2022-11-29T09:37:12.495Z,10.32
2022-11-29T09:39:41.610Z,9.95
2022-11-29T09:42:36.898Z,8.85
2022-11-29T09:45:10.905Z,10.23
2022-11-29T09:47:47.639Z,9.00
2022-11-29T09:50:29.164Z,9.95
2022-11-29T09:53:15.267Z,9.55
2022-11-29T09:56:01.160Z,8.63
2022-11-29T09:58:30.830Z,8.45
2022-11-29T10:01:01.218Z,6.90
2022-11-29T10:03:41.694Z,8.73
2022-11-29T10:06:29.229Z,9.05
2022-11-29T10:09:17.124Z,7.80
2022-11-29T10:12:13.380Z,7.90
2022-11-29T10:15:11.480Z,6.82
2022-11-29T10:17:42.272Z,7.40
2022-11-29T10:20:17.523Z,8.27
2022-11-29T10:23:10.176Z,7.85
2022-11-29T10:25:44.722Z,7.93
2022-11-29T10:28:19.626Z,7.50
2022-11-29T10:30:47.790Z,8.32
2022-11-29T10:33:35.365Z,7.60
2022-11-29T10:36:05.562Z,7.07
2022-11-29T10:38:33.169Z,6.10
2022-11-29T10:41:08.957Z,7.78
2022-11-29T10:43:37.554Z,4.22
2022-11-29T10:46:05.274Z,4.53
2022-11-29T10:48:33.729Z,3.10
2022-11-29T10:51:02.210Z,5.05
2022-11-29T10:53:36.165Z,4.68
2022-11-29T10:56:14.359Z,4.47
2022-11-29T10:59:03.198Z,5.55
2022-11-29T11:01:51.489Z,5.35
2022-11-29T11:04:35.753Z,4.68
2022-11-29T11:07:04.793Z,5.07
2022-11-29T11:09:42.552Z,3.75
2022-11-29T11:12:16.299Z,5.95
2022-11-29T11:14:44.522Z,5.10
2022-11-29T11:17:19.807Z,6.22
2022-11-29T11:20:17.934Z,4.25
2022-11-29T11:22:56.854Z,4.75
2022-11-29T11:25:39.111Z,3.97
2022-11-29T11:28:20.507Z,5.65
2022-11-29T11:30:58.659Z,4.10
2022-11-29T11:33:30.309Z,5.53
2022-11-29T11:36:05.889Z,4.40
2022-11-29T11:38:38.366Z,5.18
2022-11-29T11:41:46.499Z,5.50
2022-11-29T11:47:19.886Z,5.07
2022-11-29T11:49:50.554Z,4.47
2022-11-29T11:52:28.185Z,5.40
2022-11-29T11:54:58.451Z,4.47
2022-11-29T11:57:26.324Z,5.32
2022-11-29T11:59:55.628Z,5.38
2022-11-29T12:02:36.637Z,5.40
2022-11-29T12:05:07.281Z,4.72
2022-11-29T12:08:06.605Z,6.15
2022-11-29T12:10:29.838Z,6.75
2022-11-29T12:12:57.545Z,5.03
2022-11-29T12:15:28.795Z,5.40
2022-11-29T12:18:06.374Z,5.45
2022-11-29T12:20:53.777Z,5.53
2022-11-29T12:23:30.513Z,5.50
2022-11-29T12:26:04.616Z,5.28
2022-11-29T12:28:33.913Z,4.57
2022-11-29T12:31:24.698Z,4.72
2022-11-29T12:34:16.540Z,5.97
2022-11-29T12:36:47.405Z,5.45
2022-11-29T12:39:30.305Z,6.63
2022-11-29T12:42:07.951Z,6.80
2022-11-29T12:44:47.845Z,7.20
2022-11-29T12:47:37.343Z,5.63
2022-11-29T12:50:31.058Z,5.80
2022-11-29T12:53:27.247Z,6.45
2022-11-29T12:56:16.602Z,6.43
2022-11-29T12:58:53.500Z,6.70
2022-11-29T13:01:37.194Z,7.28
2022-11-29T13:04:26.573Z,5.47
2022-11-29T13:07:12.882Z,7.10
2022-11-29T13:09:47.162Z,6.43
2022-11-29T13:12:39.447Z,4.47
2022-11-29T13:15:30.887Z,6.25
2022-11-29T13:18:03.734Z,6.60
2022-11-29T13:20:33.974Z,5.82
2022-11-29T13:23:39.158Z,7.00
2022-11-29T13:26:14.188Z,6.78
2022-11-29T13:28:42.526Z,5.72
2022-11-29T13:31:15.891Z,4.57
2022-11-29T13:34:26.808Z,5.07
2022-11-29T13:37:40.250Z,4.88
2022-11-29T13:40:34.165Z,4.65
2022-11-29T13:43:21.960Z,2.50
2022-11-29T13:46:46.949Z,2.75
2022-11-29T13:49:24.247Z,4.65
2022-11-29T13:52:04.498Z,4.35
2022-11-29T13:54:32.697Z,4.90
2022-11-29T13:57:03.671Z,4.15
2022-11-29T13:59:32.852Z,4.30
2022-11-29T14:02:00.677Z,5.30
2022-11-29T14:04:36.709Z,4.93
2022-11-29T14:07:05.321Z,5.53
2022-11-29T14:09:41.463Z,5.47
2022-11-29T14:12:22.182Z,5.43
2022-11-29T14:15:01.728Z,5.20
2022-11-29T14:17:45.645Z,4.57
2022-11-29T14:20:25.954Z,4.03
2022-11-29T14:23:04.238Z,5.15
2022-11-29T14:25:51.643Z,3.80
2022-11-29T14:28:23.034Z,5.03
2022-11-29T14:30:54.784Z,5.83
2022-11-29T14:33:47.501Z,5.25
2022-11-29T14:36:15.216Z,6.05
2022-11-29T14:38:45.364Z,5.97
2022-11-29T14:41:28.455Z,5.22
2022-11-29T14:44:26.268Z,5.90
2022-11-29T14:47:08.392Z,5.63
2022-11-29T14:49:41.054Z,6.68
2022-11-29T14:52:17.570Z,6.85
2022-11-29T14:55:08.045Z,6.55
2022-11-29T14:57:48.162Z,5.88
2022-11-29T15:00:19.464Z,6.18
2022-11-29T15:02:50.898Z,6.80
2022-11-29T15:07:52.034Z,5.43
2022-11-29T15:10:22.797Z,4.90
2022-11-29T15:12:50.713Z,5.82
2022-11-29T15:15:24.524Z,5.88
2022-11-29T15:18:14.773Z,5.38
2022-11-29T15:21:07.276Z,4.50
2022-11-29T15:23:42.669Z,6.22
2022-11-29T15:26:20.944Z,6.22
2022-11-29T15:28:48.665Z,5.35
2022-11-29T15:31:19.308Z,5.82
2022-11-29T15:33:48.091Z,5.63
2022-11-29T15:36:20.061Z,6.85
2022-11-29T15:38:49.740Z,6.45
2022-11-29T15:41:32.128Z,6.07
2022-11-29T15:44:04.725Z,5.82
2022-11-29T15:46:35.793Z,5.93
2022-11-29T15:49:26.056Z,5.38
2022-11-29T15:52:07.780Z,5.60
2022-11-29T15:54:37.976Z,6.00
2022-11-29T15:57:19.290Z,6.57
2022-11-29T15:59:48.393Z,6.55
2022-11-29T16:02:15.992Z,7.25
2022-11-29T16:04:46.769Z,7.40
2022-11-29T16:07:16.694Z,6.72
2022-11-29T16:09:50.329Z,6.90
2022-11-29T16:12:18.615Z,6.93
2022-11-29T16:14:59.820Z,7.10
2022-11-29T16:17:29.526Z,6.70
2022-11-29T16:20:13.716Z,6.40
